Time;durP1;ratioP1;P1;durP2;ratioP2;P2;SDS_P1;SDS_P2;PMS_P1;PMS_P2;Temp;Humidity;BMP_temperature;BMP_pressure;BME280_temperature;BME280_humidity;BME280_pressure;Samples;Min_cycle;Max_cycle;Signal;HPM_P1;HPM_P2
2021/11/28 00:00:45;;;;;;;9.15;4.50;;;5.50;99.90;;;;;;4939424;29;20535;-74
2021/11/28 00:03:17;;;;;;;6.38;4.72;;;5.50;99.90;;;;;;4938769;29;20204;-74
2021/11/28 00:05:50;;;;;;;9.82;4.55;;;5.50;99.90;;;;;;4938926;29;20172;-74
2021/11/28 00:08:24;;;;;;;10.60;4.80;;;5.50;99.90;;;;;;4938179;28;20168;-74
2021/11/28 00:11:02;;;;;;;7.97;4.00;;;5.50;99.90;;;;;;4955845;29;20226;-73
2021/11/28 00:15:57;;;;;;;6.60;3.92;;;5.60;99.90;;;;;;4955789;29;20161;-74
2021/11/28 00:18:22;;;;;;;5.00;3.47;;;5.60;99.90;;;;;;4938072;28;20173;-74
2021/11/28 00:20:49;;;;;;;4.10;3.30;;;5.60;99.90;;;;;;4955776;29;20167;-74
2021/11/28 00:23:15;;;;;;;8.30;3.65;;;5.70;99.90;;;;;;4955289;29;20180;-75
2021/11/28 00:25:41;;;;;;;6.13;4.10;;;5.80;99.90;;;;;;4955782;29;20165;-74
2021/11/28 00:28:07;;;;;;;5.13;3.40;;;5.80;99.90;;;;;;4954494;28;20653;-75
2021/11/28 00:30:33;;;;;;;7.38;3.85;;;5.90;99.90;;;;;;4954935;28;20230;-74
2021/11/28 00:33:00;;;;;;;5.73;3.60;;;5.90;99.90;;;;;;4955468;29;20173;-74
2021/11/28 00:35:27;;;;;;;3.67;3.20;;;5.90;99.90;;;;;;4955432;29;20944;-75
2021/11/28 00:37:54;;;;;;;8.30;4.70;;;5.90;99.90;;;;;;4922264;29;20165;-74
2021/11/28 00:40:19;;;;;;;8.90;4.40;;;5.90;99.90;;;;;;4937976;29;20669;-75
2021/11/28 00:42:45;;;;;;;6.17;3.50;;;6.00;99.90;;;;;;4938023;29;20183;-74
2021/11/28 00:45:11;;;;;;;7.83;3.80;;;6.00;99.90;;;;;;4937843;29;20584;-74
2021/11/28 00:47:37;;;;;;;6.23;3.50;;;6.00;99.90;;;;;;4937833;29;20271;-75
2021/11/28 00:52:32;;;;;;;7.15;3.30;;;5.90;99.90;;;;;;4955132;29;20537;-74
2021/11/28 00:54:59;;;;;;;4.70;3.25;;;5.90;99.90;;;;;;4921887;29;20641;-74
2021/11/28 00:57:26;;;;;;;4.03;3.08;;;5.90;99.90;;;;;;4954679;29;20547;-74
2021/11/28 00:59:53;;;;;;;5.00;3.42;;;5.90;99.90;;;;;;4937876;29;20227;-74
2021/11/28 01:02:20;;;;;;;3.92;2.90;;;5.90;99.90;;;;;;4937956;29;20176;-74
2021/11/28 01:04:46;;;;;;;4.78;3.47;;;6.00;99.90;;;;;;4921883;29;20894;-75
2021/11/28 01:07:12;;;;;;;5.85;4.35;;;6.00;99.90;;;;;;4954419;29;20184;-74
2021/11/28 01:09:38;;;;;;;6.05;4.22;;;6.00;99.90;;;;;;4937746;29;20294;-75
2021/11/28 01:12:06;;;;;;;5.80;4.20;;;6.00;99.90;;;;;;4921184;29;20346;-74
2021/11/28 01:14:33;;;;;;;5.40;3.78;;;6.00;99.90;;;;;;4937701;29;20677;-74
2021/11/28 01:16:59;;;;;;;5.47;3.92;;;6.00;99.90;;;;;;4921000;29;20181;-75
2021/11/28 01:19:25;;;;;;;6.00;4.10;;;6.00;99.90;;;;;;4937313;29;20196;-75
2021/11/28 01:22:00;;;;;;;5.57;3.43;;;6.10;99.90;;;;;;4937088;29;20230;-74
2021/11/28 01:24:27;;;;;;;5.53;3.60;;;6.10;99.90;;;;;;4932655;29;20596;-74
2021/11/28 01:26:54;;;;;;;6.45;3.83;;;6.10;99.90;;;;;;4924724;29;20546;-74
2021/11/28 01:29:23;;;;;;;5.32;3.78;;;6.10;99.90;;;;;;4936845;29;20742;-74
2021/11/28 01:31:49;;;;;;;3.57;3.20;;;6.10;99.90;;;;;;4926290;29;20268;-75
2021/11/28 01:34:15;;;;;;;5.50;3.57;;;6.20;99.90;;;;;;4954208;29;20608;-74
2021/11/28 01:36:41;;;;;;;5.20;3.30;;;6.20;99.90;;;;;;4954307;29;20663;-75
2021/11/28 01:39:08;;;;;;;5.43;3.77;;;6.30;99.90;;;;;;4936899;29;20291;-74
2021/11/28 01:41:35;;;;;;;7.10;4.00;;;6.30;99.90;;;;;;4921071;29;20207;-74
2021/11/28 01:44:01;;;;;;;5.20;3.63;;;6.30;99.90;;;;;;4920697;29;20640;-75
2021/11/28 01:46:28;;;;;;;5.10;4.03;;;6.30;99.90;;;;;;4921346;29;20228;-74
2021/11/28 01:48:54;;;;;;;5.57;3.35;;;6.40;99.90;;;;;;4936146;29;20215;-74
2021/11/28 01:51:24;;;;;;;5.15;3.15;;;6.40;99.90;;;;;;4937183;29;20573;-75
2021/11/28 01:53:52;;;;;;;8.02;4.30;;;6.50;99.90;;;;;;4936569;29;20266;-75
2021/11/28 01:56:19;;;;;;;5.45;3.92;;;6.50;99.90;;;;;;4936854;29;20173;-75
2021/11/28 01:58:45;;;;;;;4.50;3.00;;;6.40;99.90;;;;;;4936508;29;20192;-75
2021/11/28 02:01:15;;;;;;;4.63;3.00;;;6.50;99.90;;;;;;4921238;29;20263;-74
2021/11/28 02:03:42;;;;;;;4.32;3.35;;;6.50;99.90;;;;;;4921265;29;20512;-75
2021/11/28 02:06:12;;;;;;;4.28;3.60;;;6.40;99.90;;;;;;4953552;29;20183;-75
2021/11/28 02:08:39;;;;;;;4.53;3.90;;;6.40;99.90;;;;;;4936184;29;20236;-75
2021/11/28 02:11:07;;;;;;;5.85;4.05;;;6.40;99.90;;;;;;4926379;29;20560;-75
2021/11/28 02:13:34;;;;;;;5.60;3.75;;;6.40;99.90;;;;;;4931532;29;20557;-75
2021/11/28 02:16:06;;;;;;;4.53;3.53;;;6.40;99.90;;;;;;4936589;29;20232;-75
2021/11/28 02:18:34;;;;;;;3.72;2.92;;;6.40;99.90;;;;;;4936834;29;20380;-75
2021/11/28 02:21:02;;;;;;;3.97;2.60;;;6.40;99.90;;;;;;4936950;29;20168;-75
2021/11/28 02:23:30;;;;;;;5.18;2.97;;;6.40;99.90;;;;;;4936370;29;20915;-75
2021/11/28 02:26:03;;;;;;;3.95;3.10;;;6.40;99.90;;;;;;4937063;29;20169;-75
2021/11/28 02:28:31;;;;;;;6.22;2.97;;;6.40;99.90;;;;;;4936475;29;20302;-75
2021/11/28 02:30:57;;;;;;;5.05;4.22;;;6.40;99.90;;;;;;4936551;29;20216;-75
2021/11/28 02:33:24;;;;;;;3.92;3.15;;;6.30;99.90;;;;;;4920640;29;20271;-75
2021/11/28 02:35:52;;;;;;;3.35;3.05;;;6.30;99.90;;;;;;4921052;29;20183;-75
2021/11/28 02:38:18;;;;;;;4.55;3.47;;;6.30;99.90;;;;;;4936165;28;20584;-75
2021/11/28 02:40:45;;;;;;;6.05;2.63;;;6.30;99.90;;;;;;4936498;29;20219;-75
2021/11/28 02:43:13;;;;;;;5.38;3.00;;;6.30;99.90;;;;;;4933796;29;20177;-75
2021/11/28 02:45:39;;;;;;;2.55;2.35;;;6.30;99.90;;;;;;4925459;29;20191;-75
2021/11/28 02:48:08;;;;;;;5.38;3.13;;;6.30;99.90;;;;;;4951664;28;20206;-75
2021/11/28 02:50:35;;;;;;;4.55;3.60;;;6.30;99.90;;;;;;4983655;23;20223;-75
2021/11/28 02:53:04;;;;;;;4.93;2.80;;;6.30;99.90;;;;;;4964280;28;20230;-75
2021/11/28 02:55:39;;;;;;;3.35;2.60;;;6.30;99.90;;;;;;4975396;28;20164;-76
2021/11/28 02:58:06;;;;;;;3.40;2.50;;;6.30;99.90;;;;;;4975392;28;20171;-76
2021/11/28 03:00:35;;;;;;;2.88;2.40;;;6.40;99.90;;;;;;4975222;28;20226;-75
2021/11/28 03:03:01;;;;;;;4.28;2.65;;;6.40;99.90;;;;;;4976755;28;20628;-75
2021/11/28 03:05:28;;;;;;;5.38;3.55;;;6.40;99.90;;;;;;4959102;28;20187;-76
2021/11/28 03:07:56;;;;;;;3.08;2.20;;;6.40;99.90;;;;;;4959150;28;20183;-76
2021/11/28 03:10:42;;;;;;;4.65;2.90;;;6.40;99.90;;;;;;4974939;28;20212;-76
2021/11/28 03:13:29;;;;;;;3.42;2.42;;;6.40;99.90;;;;;;4975066;28;20270;-76
2021/11/28 03:16:02;;;;;;;2.90;2.08;;;6.40;99.90;;;;;;4958811;28;20176;-76
2021/11/28 03:18:29;;;;;;;4.47;3.08;;;6.40;99.90;;;;;;4958894;28;20184;-76
2021/11/28 03:20:58;;;;;;;3.88;2.30;;;6.30;99.90;;;;;;4975127;28;20197;-76
2021/11/28 03:23:27;;;;;;;5.82;2.50;;;6.30;99.90;;;;;;4976328;28;20520;-75
2021/11/28 03:26:15;;;;;;;2.83;2.25;;;6.30;99.90;;;;;;4965733;28;20175;-76
2021/11/28 03:29:06;;;;;;;2.75;2.28;;;6.30;99.90;;;;;;4974543;28;20634;-76
2021/11/28 03:31:55;;;;;;;6.63;2.70;;;6.30;99.90;;;;;;4945417;28;20199;-76
2021/11/28 03:34:40;;;;;;;3.90;2.22;;;6.30;99.90;;;;;;4976367;28;20184;-76
2021/11/28 03:37:14;;;;;;;3.60;2.10;;;6.30;99.90;;;;;;4975171;28;20175;-76
2021/11/28 03:39:40;;;;;;;3.25;2.30;;;6.30;99.90;;;;;;4959189;28;20219;-76
2021/11/28 03:42:07;;;;;;;5.30;2.33;;;6.30;99.90;;;;;;4958337;28;20238;-76
2021/11/28 03:44:36;;;;;;;3.20;2.22;;;6.30;99.90;;;;;;4976126;28;20575;-76
2021/11/28 03:47:19;;;;;;;4.00;2.78;;;6.30;99.90;;;;;;4976374;28;20227;-76
2021/11/28 03:49:52;;;;;;;3.97;2.75;;;6.30;99.90;;;;;;4975822;28;20247;-76
2021/11/28 03:52:19;;;;;;;4.00;2.10;;;6.30;99.90;;;;;;4974330;28;20227;-76
2021/11/28 03:54:45;;;;;;;4.47;2.10;;;6.30;99.90;;;;;;4974335;28;20168;-76
2021/11/28 03:57:11;;;;;;;2.67;2.47;;;6.30;99.90;;;;;;4973769;28;20310;-76
2021/11/28 03:59:38;;;;;;;2.60;2.00;;;6.30;99.90;;;;;;4974189;28;20607;-76
2021/11/28 04:02:05;;;;;;;4.32;3.38;;;6.30;99.90;;;;;;4974756;28;20176;-76
2021/11/28 04:04:31;;;;;;;3.38;2.15;;;6.30;99.90;;;;;;4981160;28;20183;-76
2021/11/28 04:07:14;;;;;;;4.07;2.55;;;6.30;99.90;;;;;;4960209;28;20262;-76
2021/11/28 04:09:41;;;;;;;2.90;2.30;;;6.30;99.90;;;;;;4974378;28;20211;-76
2021/11/28 04:12:09;;;;;;;3.45;2.90;;;6.30;99.90;;;;;;4973859;28;20559;-76
2021/11/28 04:14:37;;;;;;;6.90;2.22;;;6.30;99.90;;;;;;4973949;28;20540;-76
2021/11/28 04:17:03;;;;;;;3.88;2.72;;;6.30;99.90;;;;;;4973397;28;20183;-76
2021/11/28 04:19:33;;;;;;;2.95;2.30;;;6.20;99.90;;;;;;4973931;28;20188;-76
2021/11/28 04:22:00;;;;;;;5.30;2.55;;;6.20;99.90;;;;;;4973859;28;20238;-76
2021/11/28 04:24:27;;;;;;;2.67;2.28;;;6.30;99.90;;;;;;4973721;28;20179;-76
2021/11/28 04:26:54;;;;;;;3.30;2.05;;;6.20;99.90;;;;;;4973117;28;20184;-76
2021/11/28 04:29:20;;;;;;;4.47;2.50;;;6.20;99.90;;;;;;4973383;28;20234;-76
2021/11/28 04:31:49;;;;;;;3.65;2.28;;;6.30;99.90;;;;;;4957786;28;20929;-76
2021/11/28 04:34:15;;;;;;;3.63;2.53;;;6.20;99.90;;;;;;4973231;28;20163;-76
2021/11/28 04:36:42;;;;;;;4.13;2.00;;;6.20;99.90;;;;;;4974419;28;20175;-76
2021/11/28 04:39:10;;;;;;;3.00;2.67;;;6.20;99.90;;;;;;4974078;28;20191;-76
2021/11/28 04:41:36;;;;;;;3.95;2.78;;;6.20;99.90;;;;;;4978788;28;20171;-76
2021/11/28 04:44:02;;;;;;;4.47;2.47;;;6.20;99.90;;;;;;4973765;28;20171;-76
2021/11/28 04:46:30;;;;;;;4.82;2.10;;;6.20;99.90;;;;;;4958095;28;20182;-76
2021/11/28 04:48:56;;;;;;;3.88;1.92;;;6.20;99.90;;;;;;4975278;28;20315;-76
2021/11/28 04:51:31;;;;;;;3.20;1.83;;;6.30;99.90;;;;;;4960873;28;20241;-76
2021/11/28 04:53:58;;;;;;;2.72;2.15;;;6.30;99.90;;;;;;4976089;28;20708;-75
2021/11/28 04:56:27;;;;;;;3.42;2.50;;;6.30;99.90;;;;;;4976581;28;20167;-77
2021/11/28 04:58:55;;;;;;;4.65;2.33;;;6.30;99.90;;;;;;4943521;28;20285;-76
2021/11/28 05:01:23;;;;;;;3.53;2.25;;;6.30;99.90;;;;;;4976406;28;20183;-76
2021/11/28 05:03:52;;;;;;;3.47;1.85;;;6.30;99.90;;;;;;4975686;28;20241;-76
2021/11/28 05:06:37;;;;;;;3.00;1.95;;;6.40;99.90;;;;;;4993528;28;20265;-75
2021/11/28 05:09:25;;;;;;;2.13;1.75;;;6.40;99.90;;;;;;4992708;28;20211;-75
2021/11/28 05:11:51;;;;;;;4.00;2.27;;;6.40;99.90;;;;;;4975968;28;20175;-75
2021/11/28 05:14:17;;;;;;;3.60;2.60;;;6.40;99.90;;;;;;4975735;28;20265;-75
2021/11/28 05:16:44;;;;;;;3.97;2.28;;;6.40;99.90;;;;;;4978124;28;20171;-76
2021/11/28 05:19:27;;;;;;;4.43;2.40;;;6.40;99.90;;;;;;4975958;28;20245;-75
2021/11/28 05:22:01;;;;;;;5.50;2.90;;;6.40;99.90;;;;;;4993441;28;20171;-76
2021/11/28 05:24:30;;;;;;;3.15;2.65;;;6.50;99.90;;;;;;4975402;28;20174;-76
2021/11/28 05:26:56;;;;;;;3.58;2.15;;;6.50;99.90;;;;;;4975482;28;20183;-76
2021/11/28 05:29:21;;;;;;;3.80;2.70;;;6.50;99.90;;;;;;4976007;28;20203;-76
2021/11/28 05:31:47;;;;;;;4.97;3.47;;;6.50;99.90;;;;;;4976417;28;20253;-75
2021/11/28 05:34:34;;;;;;;3.28;2.08;;;6.50;99.90;;;;;;4938930;28;20218;-76
2021/11/28 05:37:19;;;;;;;2.50;2.05;;;6.50;99.90;;;;;;4992740;28;20159;-76
2021/11/28 05:39:48;;;;;;;5.95;2.95;;;6.50;99.90;;;;;;4959663;28;20758;-76
2021/11/28 05:42:14;;;;;;;2.43;2.13;;;6.50;99.90;;;;;;4975336;28;20206;-76
2021/11/28 05:44:41;;;;;;;3.28;2.97;;;6.60;99.90;;;;;;4975458;28;20578;-76
2021/11/28 05:47:30;;;;;;;3.65;2.47;;;6.60;99.90;;;;;;4978104;28;20581;-76
2021/11/28 05:50:10;;;;;;;3.30;2.75;;;6.60;99.90;;;;;;4975120;28;20211;-76
2021/11/28 05:52:42;;;;;;;5.47;2.97;;;6.60;99.90;;;;;;4975589;28;20196;-76
2021/11/28 05:55:09;;;;;;;7.20;2.80;;;6.60;99.90;;;;;;4981125;28;20272;-76
2021/11/28 05:57:35;;;;;;;3.78;3.13;;;6.60;99.90;;;;;;4975737;28;20172;-76
2021/11/28 06:00:03;;;;;;;5.28;3.70;;;6.60;99.90;;;;;;4993720;28;20191;-76
2021/11/28 06:02:36;;;;;;;3.28;2.55;;;6.60;99.90;;;;;;4959497;28;20179;-76
2021/11/28 06:05:22;;;;;;;4.13;2.85;;;6.60;99.90;;;;;;4991067;28;20225;-76
2021/11/28 06:07:52;;;;;;;3.00;2.70;;;6.50;99.90;;;;;;4975424;28;20182;-76
2021/11/28 06:10:19;;;;;;;7.40;3.10;;;6.50;99.90;;;;;;4975852;28;20214;-76
2021/11/28 06:12:45;;;;;;;5.45;2.72;;;6.60;99.90;;;;;;4976098;28;20694;-77
2021/11/28 06:15:11;;;;;;;3.47;2.90;;;6.60;99.90;;;;;;4975468;28;20261;-76
2021/11/28 06:17:55;;;;;;;3.47;2.78;;;6.70;99.90;;;;;;4992077;28;21098;-77
2021/11/28 06:20:53;;;;;;;2.05;1.85;;;6.70;99.90;;;;;;4971756;28;20191;-76
2021/11/28 06:23:26;;;;;;;3.10;2.70;;;6.70;99.90;;;;;;4975255;28;20167;-76
2021/11/28 06:25:52;;;;;;;4.55;3.25;;;6.70;99.90;;;;;;4974747;28;20171;-76
2021/11/28 06:28:18;;;;;;;5.67;3.07;;;6.80;99.90;;;;;;4958133;28;20179;-76
2021/11/28 06:30:44;;;;;;;3.93;3.07;;;6.80;99.90;;;;;;4978572;28;20665;-76
2021/11/28 06:33:30;;;;;;;3.85;2.10;;;6.80;99.90;;;;;;4981165;28;20633;-76
2021/11/28 06:36:14;;;;;;;3.25;2.95;;;6.80;99.90;;;;;;4992409;28;20171;-76
2021/11/28 06:38:43;;;;;;;3.53;3.22;;;6.80;99.90;;;;;;4991953;28;20167;-76
2021/11/28 06:41:09;;;;;;;4.47;3.20;;;6.80;99.90;;;;;;4992405;28;20186;-76
2021/11/28 06:43:35;;;;;;;5.22;2.97;;;6.80;99.90;;;;;;4992313;28;20612;-76
2021/11/28 06:46:02;;;;;;;3.83;2.80;;;6.80;99.90;;;;;;4975350;28;20642;-76
2021/11/28 06:48:31;;;;;;;3.03;2.38;;;6.80;99.90;;;;;;4974947;28;20183;-76
2021/11/28 06:51:16;;;;;;;3.45;2.97;;;6.90;99.90;;;;;;5009605;28;20182;-76
2021/11/28 06:53:42;;;;;;;3.63;2.70;;;6.90;99.90;;;;;;4994932;28;20273;-76
2021/11/28 06:56:27;;;;;;;3.88;2.90;;;6.90;99.90;;;;;;5000331;28;20679;-76
2021/11/28 06:59:03;;;;;;;4.70;3.05;;;6.90;99.90;;;;;;5013934;28;20552;-76
2021/11/28 07:01:29;;;;;;;3.60;3.27;;;6.90;99.90;;;;;;4968211;28;20196;-76
2021/11/28 07:04:13;;;;;;;4.85;3.22;;;6.90;99.90;;;;;;4944608;29;20184;-76
2021/11/28 07:07:05;;;;;;;3.60;3.13;;;6.90;99.90;;;;;;4887266;29;20218;-76
2021/11/28 07:09:33;;;;;;;3.25;2.95;;;6.90;99.90;;;;;;4767464;29;20227;-76
2021/11/28 07:14:36;;;;;;;3.03;2.47;;;6.90;99.90;;;;;;5142842;27;20728;-76
2021/11/28 07:17:03;;;;;;;3.50;3.20;;;6.90;99.90;;;;;;5125836;27;20181;-77
2021/11/28 07:19:33;;;;;;;4.90;3.33;;;6.90;99.90;;;;;;5090550;28;20242;-76
2021/11/28 07:22:15;;;;;;;3.28;2.97;;;6.90;99.90;;;;;;5052477;28;20620;-77
2021/11/28 07:24:43;;;;;;;3.63;3.22;;;7.00;99.90;;;;;;5030515;28;20190;-77
2021/11/28 07:27:09;;;;;;;6.60;3.33;;;7.00;99.90;;;;;;4997541;28;20253;-76
2021/11/28 07:29:35;;;;;;;3.70;3.35;;;7.00;99.90;;;;;;4702087;28;1329105;-76
2021/11/28 07:32:01;;;;;;;4.72;2.90;;;7.00;99.90;;;;;;4639332;30;20209;-76
2021/11/28 07:34:46;;;;;;;5.47;3.28;;;7.00;99.90;;;;;;4639693;30;20619;-77
2021/11/28 07:37:40;;;;;;;4.07;3.38;;;7.00;99.90;;;;;;4627296;31;20730;-77
2021/11/28 07:40:07;;;;;;;4.73;3.70;;;7.00;99.90;;;;;;4619845;31;20255;-77
2021/11/28 07:42:39;;;;;;;5.40;3.25;;;7.10;99.90;;;;;;4642823;30;20605;-77
2021/11/28 07:45:24;;;;;;;3.22;2.55;;;7.10;99.90;;;;;;4634872;30;20190;-77
2021/11/28 07:48:09;;;;;;;3.63;2.35;;;7.10;99.90;;;;;;4618289;30;20193;-77
2021/11/28 07:50:42;;;;;;;3.50;2.92;;;7.10;99.90;;;;;;4614768;31;20257;-76
2021/11/28 07:53:09;;;;;;;4.72;2.90;;;7.20;99.90;;;;;;4626855;30;20240;-76
2021/11/28 07:55:34;;;;;;;4.22;3.33;;;7.20;99.90;;;;;;4659845;30;20208;-76
2021/11/28 07:58:20;;;;;;;4.13;2.58;;;7.20;99.90;;;;;;4613475;31;20189;-76
2021/11/28 08:01:09;;;;;;;3.78;3.30;;;7.20;99.90;;;;;;4636749;30;20193;-76
2021/11/28 08:03:35;;;;;;;2.92;2.45;;;7.20;99.90;;;;;;4656092;30;20652;-76
2021/11/28 08:06:36;;;;;;;3.28;2.78;;;7.20;99.90;;;;;;4644497;30;20675;-77
2021/11/28 08:09:05;;;;;;;3.03;2.58;;;7.20;99.90;;;;;;4617769;31;20242;-76
2021/11/28 08:11:39;;;;;;;4.30;3.50;;;7.20;99.90;;;;;;4614336;31;20259;-76
2021/11/28 08:14:05;;;;;;;5.00;2.45;;;7.20;99.90;;;;;;4606281;31;20225;-76
2021/11/28 08:16:31;;;;;;;3.43;3.13;;;7.20;99.90;;;;;;4633920;30;20210;-76
2021/11/28 08:18:57;;;;;;;3.90;2.87;;;7.20;99.90;;;;;;4641639;30;20201;-76
2021/11/28 08:21:26;;;;;;;4.83;3.07;;;7.20;99.90;;;;;;4616352;31;20650;-76
2021/11/28 08:23:57;;;;;;;4.45;3.22;;;7.30;99.90;;;;;;4637607;30;20702;-76
2021/11/28 08:26:23;;;;;;;3.10;2.67;;;7.30;99.90;;;;;;4604613;31;20190;-77
2021/11/28 08:28:49;;;;;;;3.92;2.70;;;7.40;99.90;;;;;;4646925;30;20206;-77
2021/11/28 08:31:15;;;;;;;2.75;2.55;;;7.40;99.90;;;;;;4705536;30;20211;-76
2021/11/28 08:34:17;;;;;;;2.90;2.40;;;7.40;99.90;;;;;;4736972;30;20220;-76
2021/11/28 08:37:04;;;;;;;3.45;2.72;;;7.50;99.90;;;;;;4737847;30;20204;-76
2021/11/28 08:39:30;;;;;;;4.13;3.00;;;7.50;99.90;;;;;;4739108;30;20234;-76
2021/11/28 08:41:56;;;;;;;4.40;3.25;;;7.50;99.90;;;;;;4737907;30;20198;-76
2021/11/28 08:44:22;;;;;;;4.23;3.30;;;7.50;99.90;;;;;;4738441;30;20180;-76
2021/11/28 08:46:48;;;;;;;4.60;3.20;;;7.50;99.90;;;;;;4735034;30;20188;-76
2021/11/28 08:49:14;;;;;;;4.57;2.80;;;7.50;99.90;;;;;;4738834;30;20701;-76
2021/11/28 08:51:40;;;;;;;7.47;3.30;;;7.60;99.90;;;;;;4720025;24;20253;-73
2021/11/28 08:54:06;;;;;;;3.92;3.35;;;7.60;99.90;;;;;;4676718;30;20649;-76
2021/11/28 08:56:32;;;;;;;3.40;2.65;;;7.60;99.90;;;;;;4689592;30;20187;-76
2021/11/28 08:59:00;;;;;;;4.45;3.10;;;7.60;99.90;;;;;;4695689;30;20186;-76
2021/11/28 09:01:26;;;;;;;3.95;3.55;;;7.70;99.90;;;;;;4697133;30;20202;-76
2021/11/28 09:03:52;;;;;;;5.87;3.60;;;7.70;99.90;;;;;;4682299;30;20210;-76
2021/11/28 09:06:18;;;;;;;5.10;3.63;;;7.80;99.90;;;;;;4682970;30;20187;-76
2021/11/28 09:08:44;;;;;;;6.40;4.13;;;7.80;99.90;;;;;;4683512;30;20186;-76
2021/11/28 09:11:10;;;;;;;4.90;4.40;;;7.80;99.90;;;;;;4699055;30;20631;-75
2021/11/28 09:13:36;;;;;;;4.90;3.47;;;7.90;99.90;;;;;;4682945;30;20214;-76
2021/11/28 09:16:03;;;;;;;3.70;3.40;;;7.90;99.90;;;;;;4683145;30;20186;-76
2021/11/28 09:18:35;;;;;;;7.82;4.07;;;7.90;99.90;;;;;;4681302;30;20206;-76
2021/11/28 09:21:01;;;;;;;3.45;3.15;;;8.00;99.90;;;;;;4696356;30;20199;-76
2021/11/28 09:26:13;;;;;;;5.18;3.05;;;8.00;99.90;;;;;;4696073;30;20649;-77
2021/11/28 09:28:39;;;;;;;3.80;3.00;;;8.00;99.90;;;;;;4708745;30;20198;-76
2021/11/28 09:31:09;;;;;;;5.10;3.30;;;8.00;99.90;;;;;;4687459;29;1084287;-76
2021/11/28 09:33:36;;;;;;;3.28;2.95;;;8.00;99.90;;;;;;4804584;29;20266;-76
2021/11/28 09:36:02;;;;;;;4.35;3.65;;;8.00;99.90;;;;;;4803670;29;20607;-75
2021/11/28 09:38:28;;;;;;;3.80;3.50;;;8.00;99.90;;;;;;4805527;29;20198;-75
2021/11/28 09:40:56;;;;;;;3.50;3.20;;;8.00;99.90;;;;;;4805276;29;20709;-76
2021/11/28 09:43:24;;;;;;;6.32;3.50;;;8.10;99.90;;;;;;4777243;30;20601;-76
2021/11/28 09:45:52;;;;;;;3.97;3.58;;;8.00;99.90;;;;;;4756385;30;20273;-75
2021/11/28 09:48:22;;;;;;;5.07;3.70;;;8.10;99.90;;;;;;4771115;29;20206;-75
2021/11/28 09:50:48;;;;;;;3.67;3.38;;;8.10;99.90;;;;;;4787441;29;20217;-75
2021/11/28 09:53:15;;;;;;;4.70;3.53;;;8.10;99.90;;;;;;4786152;29;20245;-75
2021/11/28 09:55:42;;;;;;;5.53;3.90;;;8.10;99.90;;;;;;4771112;29;20182;-76
2021/11/28 09:58:09;;;;;;;4.47;3.63;;;8.10;99.90;;;;;;4792731;29;20182;-73
2021/11/28 10:00:36;;;;;;;4.13;3.80;;;8.10;99.90;;;;;;4796644;29;20270;-75
2021/11/28 10:03:03;;;;;;;5.82;4.55;;;8.10;99.90;;;;;;4778967;29;20412;-75
2021/11/28 10:05:29;;;;;;;4.97;4.45;;;8.10;99.90;;;;;;4798643;29;20178;-75
2021/11/28 10:07:55;;;;;;;4.30;3.70;;;8.10;99.90;;;;;;4780118;29;20181;-75
2021/11/28 10:10:21;;;;;;;4.68;3.75;;;8.10;99.90;;;;;;4797511;29;20277;-77
2021/11/28 10:12:50;;;;;;;6.00;4.55;;;8.20;99.90;;;;;;4789312;29;20202;-76
2021/11/28 10:15:22;;;;;;;6.93;4.50;;;8.10;99.90;;;;;;4791766;29;20181;-76
2021/11/28 10:17:49;;;;;;;5.13;4.00;;;8.10;99.90;;;;;;4803079;29;20519;-76
2021/11/28 10:20:25;;;;;;;7.50;3.90;;;8.10;99.90;;;;;;4803736;29;20174;-76
2021/11/28 10:22:51;;;;;;;6.40;4.80;;;8.10;99.90;;;;;;4804411;29;20188;-75
2021/11/28 10:25:28;;;;;;;6.75;4.00;;;8.10;99.90;;;;;;4791061;29;20181;-76
2021/11/28 10:28:04;;;;;;;6.15;5.25;;;8.10;99.90;;;;;;4766410;30;20181;-76
2021/11/28 10:30:30;;;;;;;6.47;5.88;;;8.10;99.90;;;;;;4767049;29;20195;-76
2021/11/28 10:33:03;;;;;;;7.73;4.97;;;8.10;99.90;;;;;;4822436;29;20209;-76
2021/11/28 10:35:30;;;;;;;5.78;4.53;;;8.20;99.90;;;;;;4823190;29;20709;-76
2021/11/28 10:37:55;;;;;;;4.55;3.63;;;8.20;99.90;;;;;;4822185;29;20186;-76
2021/11/28 10:40:24;;;;;;;6.93;4.80;;;8.20;99.90;;;;;;4806656;29;20197;-76
2021/11/28 10:43:07;;;;;;;7.35;5.50;;;8.30;99.90;;;;;;4805964;29;20602;-76
2021/11/28 10:45:38;;;;;;;10.50;6.72;;;8.30;99.90;;;;;;4806590;29;20207;-77
2021/11/28 10:48:07;;;;;;;7.00;6.30;;;8.30;99.90;;;;;;4822242;29;20233;-76
2021/11/28 10:50:35;;;;;;;8.90;8.00;;;8.40;99.90;;;;;;4822597;29;20212;-76
2021/11/28 10:53:15;;;;;;;9.45;6.70;;;8.40;99.90;;;;;;4821173;29;20649;-76
2021/11/28 10:55:46;;;;;;;9.07;7.00;;;8.50;99.90;;;;;;4806304;29;20538;-73
2021/11/28 10:58:14;;;;;;;8.68;7.15;;;8.50;99.90;;;;;;4821669;29;20169;-74
2021/11/28 11:00:46;;;;;;;9.68;7.35;;;8.50;99.90;;;;;;4822523;29;20775;-74
2021/11/28 11:03:16;;;;;;;7.90;6.45;;;8.60;99.90;;;;;;4820968;29;20185;-76
2021/11/28 11:05:43;;;;;;;6.35;5.10;;;8.60;99.90;;;;;;4821224;29;20185;-76
2021/11/28 11:08:10;;;;;;;4.57;3.83;;;8.60;99.90;;;;;;4805938;29;20196;-78
2021/11/28 11:10:36;;;;;;;3.70;3.08;;;8.70;99.90;;;;;;4829489;29;20209;-78
2021/11/28 11:13:06;;;;;;;6.53;5.00;;;8.60;99.90;;;;;;4815533;29;20230;-77
2021/11/28 11:15:36;;;;;;;5.93;4.35;;;8.60;99.90;;;;;;4833783;29;20590;-77
2021/11/28 11:18:05;;;;;;;6.05;4.90;;;8.60;99.90;;;;;;4829597;29;20527;-77
2021/11/28 11:20:34;;;;;;;6.93;4.80;;;8.60;99.90;;;;;;4830057;29;20224;-77
2021/11/28 11:23:00;;;;;;;6.30;4.65;;;8.60;99.90;;;;;;4829498;29;20642;-77
2021/11/28 11:25:36;;;;;;;5.30;4.80;;;8.60;99.90;;;;;;4836417;29;20189;-78
2021/11/28 11:28:13;;;;;;;7.22;5.35;;;8.50;99.90;;;;;;4834010;29;20663;-77
2021/11/28 11:30:40;;;;;;;7.55;6.03;;;8.60;99.90;;;;;;4863385;29;20267;-78
2021/11/28 11:33:08;;;;;;;8.20;7.15;;;8.60;99.90;;;;;;4885603;29;20285;-78
2021/11/28 11:35:43;;;;;;;8.45;6.13;;;8.60;99.90;;;;;;4895225;29;20572;-77
2021/11/28 11:38:16;;;;;;;7.65;5.38;;;8.60;99.90;;;;;;4883484;29;20177;-77
2021/11/28 11:40:44;;;;;;;6.15;5.55;;;8.70;99.90;;;;;;4888316;29;20219;-78
2021/11/28 11:43:10;;;;;;;7.65;6.20;;;8.70;99.90;;;;;;4883631;29;20546;-77
2021/11/28 11:45:38;;;;;;;6.43;5.30;;;8.70;99.90;;;;;;4881739;29;20204;-78
2021/11/28 11:48:09;;;;;;;6.03;5.45;;;8.70;99.90;;;;;;4865590;29;20250;-77
2021/11/28 11:50:38;;;;;;;7.72;5.70;;;8.70;99.90;;;;;;4855396;29;20175;-77
2021/11/28 11:53:05;;;;;;;6.68;5.85;;;8.70;99.90;;;;;;4888733;29;20201;-79
2021/11/28 11:55:37;;;;;;;7.60;5.68;;;8.70;99.90;;;;;;4861715;29;20175;-79
2021/11/28 11:58:15;;;;;;;7.20;5.50;;;8.70;99.90;;;;;;4894123;29;20171;-79
2021/11/28 12:00:58;;;;;;;8.10;5.80;;;8.70;99.90;;;;;;4881932;29;20194;-79
2021/11/28 12:03:24;;;;;;;8.27;6.70;;;8.60;99.90;;;;;;4884274;29;20545;-79
2021/11/28 12:05:57;;;;;;;7.57;6.15;;;8.60;99.90;;;;;;4887853;29;20246;-78
2021/11/28 12:08:31;;;;;;;8.55;7.55;;;8.70;99.90;;;;;;4883112;29;20171;-79
2021/11/28 12:11:12;;;;;;;7.10;5.95;;;8.70;99.90;;;;;;4864971;29;20270;-78
2021/11/28 12:13:40;;;;;;;8.75;7.40;;;8.60;99.90;;;;;;4883454;29;20202;-79
2021/11/28 12:16:06;;;;;;;8.77;7.60;;;8.60;99.90;;;;;;4881886;29;20171;-78
2021/11/28 12:18:35;;;;;;;11.33;8.33;;;8.60;99.90;;;;;;4866122;29;20675;-80
2021/11/28 12:21:32;;;;;;;7.93;7.13;;;8.60;99.90;;;;;;4870946;29;20564;-81
2021/11/28 12:24:21;;;;;;;10.85;9.10;;;8.60;99.90;;;;;;4868048;29;20206;-80
2021/11/28 12:26:52;;;;;;;9.25;8.30;;;8.60;99.90;;;;;;4887710;29;20171;-80
2021/11/28 12:29:25;;;;;;;11.07;9.30;;;8.70;99.90;;;;;;4899494;29;20218;-80
2021/11/28 12:31:55;;;;;;;9.43;8.48;;;8.70;99.90;;;;;;4889186;29;20215;-77
2021/11/28 12:34:26;;;;;;;10.88;9.55;;;8.70;99.90;;;;;;4879012;29;20592;-77
2021/11/28 12:36:55;;;;;;;10.77;9.00;;;8.80;99.90;;;;;;4893872;29;20204;-78
2021/11/28 12:39:24;;;;;;;14.23;10.85;;;8.80;99.90;;;;;;4882686;29;20180;-80
2021/11/28 12:42:02;;;;;;;9.30;8.32;;;8.80;99.90;;;;;;4887512;29;20187;-80
2021/11/28 12:44:30;;;;;;;13.35;10.93;;;8.80;99.90;;;;;;4892401;29;20266;-81
2021/11/28 12:47:20;;;;;;;10.70;9.52;;;8.90;99.90;;;;;;4888751;29;20602;-79
2021/11/28 12:49:58;;;;;;;11.98;9.25;;;8.90;99.90;;;;;;4902976;29;20194;-79
2021/11/28 12:52:24;;;;;;;12.13;10.43;;;8.90;99.90;;;;;;4883453;29;20608;-80
2021/11/28 12:55:02;;;;;;;10.68;8.98;;;9.00;99.90;;;;;;4886680;29;20258;-80
2021/11/28 12:57:32;;;;;;;13.32;10.93;;;9.00;99.90;;;;;;4890912;29;20215;-79
2021/11/28 13:00:23;;;;;;;13.60;10.98;;;9.00;99.90;;;;;;4880518;29;20171;-80
2021/11/28 13:02:58;;;;;;;12.27;9.35;;;9.00;99.90;;;;;;4879608;29;20182;-79
2021/11/28 13:05:30;;;;;;;11.10;9.77;;;9.10;99.90;;;;;;4870977;29;20589;-80
2021/11/28 13:08:05;;;;;;;12.55;9.65;;;9.10;99.90;;;;;;4888205;29;20176;-80
2021/11/28 13:10:37;;;;;;;11.65;9.38;;;9.10;99.90;;;;;;4863313;29;20223;-79
2021/11/28 13:13:24;;;;;;;12.48;10.82;;;9.10;99.90;;;;;;4870957;29;20199;-79
2021/11/28 13:15:55;;;;;;;11.60;9.73;;;9.10;99.90;;;;;;4887929;29;20270;-79
2021/11/28 13:18:31;;;;;;;12.32;10.75;;;9.00;99.90;;;;;;4897820;29;20175;-79
2021/11/28 13:21:15;;;;;;;13.02;9.77;;;9.00;99.90;;;;;;4895135;29;20199;-79
2021/11/28 13:24:00;;;;;;;11.85;10.60;;;9.00;99.90;;;;;;4865616;29;20181;-80